createdAt,value
2022-11-23T00:00:01.137Z,1003.15
2022-11-23T00:01:01.201Z,1003.19
2022-11-23T00:02:01.346Z,1003.17
2022-11-23T00:03:01.411Z,1003.12
2022-11-23T00:04:01.413Z,1003.14
2022-11-23T00:05:02.603Z,1003.1
2022-11-23T00:06:01.070Z,1003.15
2022-11-23T00:07:01.092Z,1003.12
2022-11-23T00:08:01.109Z,1003.12
2022-11-23T00:09:01.087Z,1003.08
2022-11-23T00:10:01.095Z,1003.1
2022-11-23T00:11:01.105Z,1003.13
2022-11-23T00:12:01.529Z,1003.12
2022-11-23T00:13:01.271Z,1003.09
2022-11-23T00:14:00.603Z,1003.14
2022-11-23T00:15:00.145Z,1003.15
2022-11-23T00:15:59.784Z,1003.16
2022-11-23T00:17:01.407Z,1003.15
2022-11-23T00:18:02.069Z,1003.14
2022-11-23T00:19:01.083Z,1003.1
2022-11-23T00:20:01.163Z,1003.11
2022-11-23T00:21:01.169Z,1003.1
2022-11-23T00:22:01.480Z,1003.12
2022-11-23T00:23:01.555Z,1003.11
2022-11-23T00:24:01.470Z,1003.09
2022-11-23T00:25:01.189Z,1003.08
2022-11-23T00:26:03.938Z,1003.07
2022-11-23T00:27:01.069Z,1003.1
2022-11-23T00:28:01.120Z,1003.07
2022-11-23T00:29:01.121Z,1003.05
2022-11-23T00:30:01.181Z,1003.14
2022-11-23T00:31:01.441Z,1003.12
2022-11-23T00:32:01.267Z,1003.08
2022-11-23T00:33:01.576Z,1003.05
2022-11-23T00:34:01.046Z,1003.06
2022-11-23T00:35:01.062Z,1003.08
2022-11-23T00:36:01.056Z,1003.08
2022-11-23T00:37:01.067Z,1003.07
2022-11-23T00:38:01.079Z,1003.08
2022-11-23T00:39:01.786Z,1003.12
2022-11-23T00:40:01.487Z,1003.11
2022-11-23T00:41:01.109Z,1003.12
2022-11-23T00:42:01.856Z,1003.13
2022-11-23T00:43:01.104Z,1003.11
2022-11-23T00:44:01.114Z,1003.12
2022-11-23T00:45:01.120Z,1003.14
2022-11-23T00:46:01.123Z,1003.15
2022-11-23T00:47:01.087Z,1003.17
2022-11-23T00:48:01.275Z,1003.16
2022-11-23T00:49:01.284Z,1003.16
2022-11-23T00:50:01.439Z,1003.14
2022-11-23T00:51:01.155Z,1003.12
2022-11-23T00:52:01.169Z,1003.14
2022-11-23T00:53:01.056Z,1003.19
2022-11-23T00:54:01.075Z,1003.16
2022-11-23T00:55:01.064Z,1003.17
2022-11-23T00:56:00.872Z,1003.17
2022-11-23T00:57:01.073Z,1003.19
2022-11-23T00:58:01.480Z,1003.13
2022-11-23T00:59:00.934Z,1003.14
2022-11-23T01:00:01.106Z,1003.14
2022-11-23T01:01:03.783Z,1003.13
2022-11-23T01:02:01.854Z,1003.15
2022-11-23T01:03:05.065Z,1003.08
2022-11-23T01:04:01.132Z,1003.05
2022-11-23T01:05:01.105Z,1003.05
2022-11-23T01:06:06.630Z,1003.04
2022-11-23T01:07:01.967Z,1003.07
2022-11-23T01:08:01.343Z,1003.12
2022-11-23T01:09:01.063Z,1003.11
2022-11-23T01:10:01.065Z,1003.14
2022-11-23T01:11:09.319Z,1003.14
2022-11-23T01:12:01.864Z,1003.1
2022-11-23T01:13:02.009Z,1003.09
2022-11-23T01:14:01.075Z,1003.12
2022-11-23T01:15:01.117Z,1003.14
2022-11-23T01:16:11.211Z,1003.15
2022-11-23T01:17:01.517Z,1003.16
2022-11-23T01:18:01.119Z,1003.09
2022-11-23T01:19:01.117Z,1003.12
2022-11-23T01:20:01.732Z,1003.12
2022-11-23T01:21:15.070Z,1003.15
2022-11-23T01:22:01.454Z,1003.15
2022-11-23T01:23:01.047Z,1003.13
2022-11-23T01:24:01.041Z,1003.15
2022-11-23T01:25:01.040Z,1003.13
2022-11-23T01:26:16.785Z,1003.11
2022-11-23T01:27:01.083Z,1003.13
2022-11-23T01:28:01.068Z,1003.08
2022-11-23T01:29:01.104Z,1003.07
2022-11-23T01:30:01.088Z,1003.12
2022-11-23T01:31:01.099Z,1003.1
2022-11-23T01:32:01.825Z,1003.06
2022-11-23T01:33:01.517Z,1003.09
2022-11-23T01:34:01.201Z,1003.15
2022-11-23T01:35:01.112Z,1003.15
2022-11-23T01:36:01.125Z,1003.13
2022-11-23T01:37:01.157Z,1003.11
2022-11-23T01:38:01.165Z,1003.13
2022-11-23T01:39:01.528Z,1003.11
2022-11-23T01:40:01.147Z,1003.15
2022-11-23T01:41:01.065Z,1003.14
2022-11-23T01:42:01.071Z,1003.1
2022-11-23T01:43:01.049Z,1003.13
2022-11-23T01:44:01.073Z,1003.11
2022-11-23T01:45:01.039Z,1003.11
2022-11-23T01:46:01.086Z,1003.1
2022-11-23T01:47:01.109Z,1003.09
2022-11-23T01:48:01.431Z,1003.09
2022-11-23T01:49:01.150Z,1003.11
2022-11-23T01:50:02.161Z,1003.08
2022-11-23T01:51:01.417Z,1003.09
2022-11-23T01:52:01.119Z,1003.13
2022-11-23T01:53:01.065Z,1003.1
2022-11-23T01:54:01.737Z,1003.12
2022-11-23T01:55:06.962Z,1003.14
2022-11-23T01:56:01.336Z,1003.11
2022-11-23T01:57:02.080Z,1003.13
2022-11-23T01:58:01.061Z,1003.15
2022-11-23T01:59:01.077Z,1003.14
2022-11-23T02:00:01.070Z,1003.21
2022-11-23T02:01:01.132Z,1003.19
2022-11-23T02:02:01.078Z,1003.23
2022-11-23T02:03:01.099Z,1003.23
2022-11-23T02:04:01.045Z,1003.27
2022-11-23T02:05:01.048Z,1003.23
2022-11-23T02:06:01.052Z,1003.25
2022-11-23T02:07:01.499Z,1003.27
2022-11-23T02:08:01.134Z,1003.25
2022-11-23T02:09:01.046Z,1003.25
2022-11-23T02:10:01.160Z,1003.23
2022-11-23T02:11:01.109Z,1003.22
2022-11-23T02:12:01.653Z,1003.18
2022-11-23T02:13:01.111Z,1003.16
2022-11-23T02:14:01.524Z,1003.16
2022-11-23T02:15:01.471Z,1003.18
2022-11-23T02:16:01.158Z,1003.22
2022-11-23T02:17:01.089Z,1003.24
2022-11-23T02:18:01.111Z,1003.24
2022-11-23T02:19:01.205Z,1003.28
2022-11-23T02:20:01.100Z,1003.26
2022-11-23T02:21:01.108Z,1003.25
2022-11-23T02:22:01.115Z,1003.22
2022-11-23T02:23:01.407Z,1003.27
2022-11-23T02:24:02.416Z,1003.26
2022-11-23T02:25:02.048Z,1003.29
2022-11-23T02:26:01.506Z,1003.28
2022-11-23T02:27:02.637Z,1003.28
2022-11-23T02:28:01.159Z,1003.27
2022-11-23T02:29:01.158Z,1003.26
2022-11-23T02:30:01.171Z,1003.3
2022-11-23T02:31:01.053Z,1003.32
2022-11-23T02:32:01.331Z,1003.34
2022-11-23T02:33:01.339Z,1003.3
2022-11-23T02:34:01.355Z,1003.33
2022-11-23T02:35:02.255Z,1003.37
2022-11-23T02:36:02.135Z,1003.36
2022-11-23T02:37:01.092Z,1003.35
2022-11-23T02:38:01.064Z,1003.39
2022-11-23T02:39:01.049Z,1003.33
2022-11-23T02:40:01.048Z,1003.32
2022-11-23T02:41:01.042Z,1003.28
2022-11-23T02:42:01.101Z,1003.28
2022-11-23T02:43:01.328Z,1003.32
2022-11-23T02:44:01.446Z,1003.35
2022-11-23T02:45:01.562Z,1003.3
2022-11-23T02:46:01.274Z,1003.33
2022-11-23T02:47:03.169Z,1003.35
2022-11-23T02:48:01.884Z,1003.39
2022-11-23T02:49:01.066Z,1003.35
2022-11-23T02:50:01.178Z,1003.29
2022-11-23T02:51:01.084Z,1003.34
2022-11-23T02:52:06.219Z,1003.36
2022-11-23T02:53:01.442Z,1003.37
2022-11-23T02:54:02.120Z,1003.39
2022-11-23T02:55:01.038Z,1003.42
2022-11-23T02:56:01.114Z,1003.4
2022-11-23T02:57:08.859Z,1003.46
2022-11-23T02:58:01.429Z,1003.44
2022-11-23T02:59:01.138Z,1003.42
2022-11-23T03:00:01.482Z,1003.46
2022-11-23T03:01:01.603Z,1003.48
2022-11-23T03:02:07.626Z,1003.5
2022-11-23T03:03:01.076Z,1003.47
2022-11-23T03:04:01.067Z,1003.43
2022-11-23T03:05:01.037Z,1003.42
2022-11-23T03:06:01.041Z,1003.38
2022-11-23T03:07:15.564Z,1003.39
2022-11-23T03:08:01.145Z,1003.43
2022-11-23T03:09:01.422Z,1003.45
2022-11-23T03:10:01.113Z,1003.42
2022-11-23T03:11:01.878Z,1003.42
2022-11-23T03:12:01.506Z,1003.49
2022-11-23T03:13:01.053Z,1003.49
2022-11-23T03:14:01.118Z,1003.46
2022-11-23T03:15:01.156Z,1003.47
2022-11-23T03:16:01.163Z,1003.47
2022-11-23T03:17:02.565Z,1003.46
2022-11-23T03:18:01.443Z,1003.46
2022-11-23T03:19:01.063Z,1003.45
2022-11-23T03:20:01.067Z,1003.44
2022-11-23T03:21:01.083Z,1003.41
2022-11-23T03:22:01.090Z,1003.47
2022-11-23T03:23:01.070Z,1003.44
2022-11-23T03:24:01.044Z,1003.43
2022-11-23T03:25:01.043Z,1003.43
2022-11-23T03:26:01.127Z,1003.44
2022-11-23T03:27:01.113Z,1003.48
2022-11-23T03:28:01.230Z,1003.51
2022-11-23T03:29:01.125Z,1003.54
2022-11-23T03:30:01.249Z,1003.6
2022-11-23T03:31:01.334Z,1003.59
2022-11-23T03:32:01.146Z,1003.64
2022-11-23T03:33:01.151Z,1003.68
2022-11-23T03:34:01.179Z,1003.68
2022-11-23T03:35:01.040Z,1003.76
2022-11-23T03:36:01.452Z,1003.8
2022-11-23T03:37:01.447Z,1003.78
2022-11-23T03:38:01.153Z,1003.79
2022-11-23T03:39:01.083Z,1003.79
2022-11-23T03:40:01.051Z,1003.75
2022-11-23T03:41:01.128Z,1003.77
2022-11-23T03:42:01.099Z,1003.73
2022-11-23T03:43:01.104Z,1003.74
2022-11-23T03:44:01.103Z,1003.76
2022-11-23T03:45:01.269Z,1003.82
2022-11-23T03:46:01.632Z,1003.82
2022-11-23T03:47:01.514Z,1003.87
2022-11-23T03:48:03.139Z,1003.89
2022-11-23T03:49:01.145Z,1003.91
2022-11-23T03:50:02.313Z,1003.9
2022-11-23T03:51:01.060Z,1003.88
2022-11-23T03:52:01.164Z,1003.85
2022-11-23T03:53:01.066Z,1003.86
2022-11-23T03:54:01.068Z,1003.85
2022-11-23T03:55:01.084Z,1003.82
2022-11-23T03:56:01.088Z,1003.81
2022-11-23T03:57:01.075Z,1003.79
2022-11-23T03:58:01.515Z,1003.8
2022-11-23T03:59:01.117Z,1003.8
2022-11-23T04:00:01.135Z,1003.78
2022-11-23T04:01:01.778Z,1003.76
2022-11-23T04:02:01.008Z,1003.8
2022-11-23T04:03:00.717Z,1003.8
2022-11-23T04:04:00.398Z,1003.8
2022-11-23T04:05:00.309Z,1003.78
2022-11-23T04:05:59.937Z,1003.73
2022-11-23T04:06:59.549Z,1003.78
2022-11-23T04:08:01.173Z,1003.77
2022-11-23T04:09:02.487Z,1003.76
2022-11-23T04:10:01.061Z,1003.74
2022-11-23T04:11:01.052Z,1003.75
2022-11-23T04:12:01.101Z,1003.8
2022-11-23T04:13:01.116Z,1003.8
2022-11-23T04:14:01.061Z,1003.79
2022-11-23T04:15:01.056Z,1003.79
2022-11-23T04:16:01.521Z,1003.78
2022-11-23T04:17:01.230Z,1003.76
2022-11-23T04:18:01.137Z,1003.77
2022-11-23T04:19:01.782Z,1003.74
2022-11-23T04:20:01.790Z,1003.72
2022-11-23T04:21:01.526Z,1003.74
2022-11-23T04:22:01.169Z,1003.73
2022-11-23T04:23:01.152Z,1003.72
2022-11-23T04:24:01.776Z,1003.74
2022-11-23T04:25:01.055Z,1003.72
2022-11-23T04:26:01.804Z,1003.7
2022-11-23T04:27:00.525Z,1003.74
2022-11-23T04:28:00.258Z,1003.73
2022-11-23T04:28:59.889Z,1003.67
2022-11-23T04:30:00.887Z,1003.69
2022-11-23T04:31:00.573Z,1003.66
2022-11-23T04:32:00.197Z,1003.66
2022-11-23T04:33:01.307Z,1003.64
2022-11-23T04:34:00.620Z,1003.67
2022-11-23T04:35:00.300Z,1003.68
2022-11-23T04:35:59.931Z,1003.69
2022-11-23T04:36:59.680Z,1003.7
2022-11-23T04:38:04.311Z,1003.72
2022-11-23T04:39:02.878Z,1003.71
2022-11-23T04:40:02.113Z,1003.73
2022-11-23T04:41:00.525Z,1003.74
2022-11-23T04:42:00.366Z,1003.76
2022-11-23T04:43:05.644Z,1003.75
2022-11-23T04:44:04.127Z,1003.74
2022-11-23T04:45:01.272Z,1003.78
2022-11-23T04:46:08.349Z,1003.77
2022-11-23T04:47:01.901Z,1003.77
2022-11-23T04:48:10.067Z,1003.82
2022-11-23T04:49:01.102Z,1003.82
2022-11-23T04:50:01.189Z,1003.82
2022-11-23T04:51:01.357Z,1003.8
2022-11-23T04:52:03.941Z,1003.84
2022-11-23T04:53:12.574Z,1003.82
2022-11-23T04:54:03.889Z,1003.84
2022-11-23T04:55:01.717Z,1003.8
2022-11-23T04:56:01.154Z,1003.79
2022-11-23T04:57:01.163Z,1003.76
2022-11-23T04:58:14.953Z,1003.77
2022-11-23T04:59:01.179Z,1003.77
2022-11-23T05:00:01.262Z,1003.73
2022-11-23T05:01:02.252Z,1003.67
2022-11-23T05:02:01.095Z,1003.66
2022-11-23T05:03:01.096Z,1003.63
2022-11-23T05:04:01.807Z,1003.68
2022-11-23T05:05:01.810Z,1003.69
2022-11-23T05:06:01.819Z,1003.69
2022-11-23T05:07:01.821Z,1003.69
2022-11-23T05:08:01.418Z,1003.65
2022-11-23T05:09:02.026Z,1003.69
2022-11-23T05:10:01.501Z,1003.68
2022-11-23T05:11:01.136Z,1003.68
2022-11-23T05:12:01.149Z,1003.69
2022-11-23T05:13:01.312Z,1003.77
2022-11-23T05:14:01.207Z,1003.79
2022-11-23T05:15:01.104Z,1003.78
2022-11-23T05:16:01.065Z,1003.8
2022-11-23T05:17:01.093Z,1003.79
2022-11-23T05:18:01.766Z,1003.8
2022-11-23T05:19:01.214Z,1003.78
2022-11-23T05:20:08.033Z,1003.76
2022-11-23T05:21:01.239Z,1003.78
2022-11-23T05:22:01.117Z,1003.78
2022-11-23T05:23:01.249Z,1003.76
2022-11-23T05:24:01.127Z,1003.77
2022-11-23T05:25:01.043Z,1003.73
2022-11-23T05:26:01.696Z,1003.73
2022-11-23T05:27:01.047Z,1003.74
2022-11-23T05:28:16.569Z,1003.74
2022-11-23T05:29:01.526Z,1003.76
2022-11-23T05:30:01.143Z,1003.74
2022-11-23T05:31:01.158Z,1003.75
2022-11-23T05:32:01.059Z,1003.73
2022-11-23T05:33:01.073Z,1003.76
2022-11-23T05:34:01.293Z,1003.75
2022-11-23T05:35:01.429Z,1003.71
2022-11-23T05:36:01.172Z,1003.69
2022-11-23T05:37:01.094Z,1003.71
2022-11-23T05:38:01.107Z,1003.71
2022-11-23T05:39:01.061Z,1003.7
2022-11-23T05:40:00.955Z,1003.64
2022-11-23T05:41:01.632Z,1003.68
2022-11-23T05:42:01.337Z,1003.67
2022-11-23T05:43:02.212Z,1003.66
2022-11-23T05:44:01.164Z,1003.7
2022-11-23T05:45:00.958Z,1003.69
2022-11-23T05:46:01.459Z,1003.73
2022-11-23T05:47:01.172Z,1003.73
2022-11-23T05:48:01.251Z,1003.73
2022-11-23T05:49:01.160Z,1003.73
2022-11-23T05:50:01.082Z,1003.72
2022-11-23T05:51:05.126Z,1003.74
2022-11-23T05:52:02.109Z,1003.77
2022-11-23T05:53:02.356Z,1003.8
2022-11-23T05:54:01.111Z,1003.78
2022-11-23T05:55:01.236Z,1003.77
2022-11-23T05:56:01.179Z,1003.72
2022-11-23T05:57:01.213Z,1003.71
2022-11-23T05:58:01.120Z,1003.67
2022-11-23T05:59:01.597Z,1003.68
2022-11-23T06:00:01.069Z,1003.69
2022-11-23T06:01:01.146Z,1003.76
2022-11-23T06:02:01.043Z,1003.71
2022-11-23T06:03:01.230Z,1003.73
2022-11-23T06:04:01.225Z,1003.72
2022-11-23T06:05:01.084Z,1003.73
2022-11-23T06:06:01.426Z,1003.69
2022-11-23T06:07:01.267Z,1003.75
2022-11-23T06:08:01.055Z,1003.72
2022-11-23T06:09:01.049Z,1003.71
2022-11-23T06:10:00.722Z,1003.69
2022-11-23T06:11:00.304Z,1003.7
2022-11-23T06:11:59.980Z,1003.67
2022-11-23T06:12:59.790Z,1003.67
2022-11-23T06:14:04.546Z,1003.69
2022-11-23T06:15:01.433Z,1003.7
2022-11-23T06:16:02.108Z,1003.69
2022-11-23T06:17:01.434Z,1003.69
2022-11-23T06:18:01.046Z,1003.74
2022-11-23T06:19:08.380Z,1003.74
2022-11-23T06:20:01.056Z,1003.7
2022-11-23T06:21:01.059Z,1003.72
2022-11-23T06:22:01.146Z,1003.76
2022-11-23T06:23:01.070Z,1003.76
2022-11-23T06:24:11.410Z,1003.74
2022-11-23T06:25:01.102Z,1003.75
2022-11-23T06:26:01.169Z,1003.74
2022-11-23T06:27:01.444Z,1003.71
2022-11-23T06:28:01.969Z,1003.71
2022-11-23T06:29:14.396Z,1003.77
2022-11-23T06:30:01.117Z,1003.77
2022-11-23T06:31:01.131Z,1003.8
2022-11-23T06:32:01.510Z,1003.83
2022-11-23T06:33:01.206Z,1003.83
2022-11-23T06:34:13.805Z,1003.79
2022-11-23T06:35:01.516Z,1003.85
2022-11-23T06:36:02.754Z,1003.79
2022-11-23T06:37:01.060Z,1003.84
2022-11-23T06:38:01.061Z,1003.82
2022-11-23T06:39:16.377Z,1003.86
2022-11-23T06:40:01.095Z,1003.85
2022-11-23T06:41:01.091Z,1003.87
2022-11-23T06:42:23.444Z,1003.86
2022-11-23T06:43:01.070Z,1003.89
2022-11-23T06:44:01.221Z,1003.89
2022-11-23T06:45:01.220Z,1003.88
2022-11-23T06:46:01.166Z,1003.9
2022-11-23T06:47:01.496Z,1003.9
2022-11-23T06:48:01.127Z,1003.87
2022-11-23T06:49:01.135Z,1003.89
2022-11-23T06:50:01.145Z,1003.92
2022-11-23T06:51:01.137Z,1003.93
2022-11-23T06:52:01.292Z,1003.94
2022-11-23T06:53:01.144Z,1003.96
2022-11-23T06:54:01.266Z,1003.98
2022-11-23T06:55:00.766Z,1004
2022-11-23T06:56:00.362Z,1004.02
2022-11-23T06:56:59.950Z,1004.07
2022-11-23T06:57:59.546Z,1004.04
2022-11-23T06:59:01.145Z,1004.02
2022-11-23T07:00:01.799Z,1004
2022-11-23T07:01:01.852Z,1004.01
2022-11-23T07:02:01.139Z,1004.03
2022-11-23T07:03:01.129Z,1004.05
2022-11-23T07:04:01.201Z,1004.02
2022-11-23T07:05:01.834Z,1004.04
2022-11-23T07:06:01.838Z,1004.03
2022-11-23T07:07:01.143Z,1004.06
2022-11-23T07:08:01.154Z,1004.08
2022-11-23T07:09:01.062Z,1004.06
2022-11-23T07:10:06.879Z,1004.07
2022-11-23T07:11:01.045Z,1004.04
2022-11-23T07:12:01.089Z,1004.08
2022-11-23T07:13:01.083Z,1004.11
2022-11-23T07:14:01.096Z,1004.14
2022-11-23T07:15:01.340Z,1004.16
2022-11-23T07:16:01.094Z,1004.2
2022-11-23T07:17:01.155Z,1004.13
2022-11-23T07:18:01.232Z,1004.16
2022-11-23T07:19:01.122Z,1004.18
2022-11-23T07:20:01.235Z,1004.17
2022-11-23T07:21:01.166Z,1004.21
2022-11-23T07:22:01.374Z,1004.24
2022-11-23T07:23:01.167Z,1004.23
2022-11-23T07:24:01.163Z,1004.25
2022-11-23T07:25:01.356Z,1004.19
2022-11-23T07:26:01.061Z,1004.23
2022-11-23T07:27:01.059Z,1004.24
2022-11-23T07:28:01.052Z,1004.26
2022-11-23T07:29:01.053Z,1004.22
2022-11-23T07:30:01.186Z,1004.26
2022-11-23T07:31:01.324Z,1004.25
2022-11-23T07:32:01.101Z,1004.24
2022-11-23T07:33:01.067Z,1004.27
2022-11-23T07:34:01.510Z,1004.22
2022-11-23T07:35:01.080Z,1004.24
2022-11-23T07:36:01.120Z,1004.26
2022-11-23T07:37:02.310Z,1004.27
2022-11-23T07:38:01.590Z,1004.29
2022-11-23T07:39:01.327Z,1004.29
2022-11-23T07:40:02.423Z,1004.29
2022-11-23T07:41:02.077Z,1004.32
2022-11-23T07:43:01.078Z,1004.36
2022-11-23T07:44:01.074Z,1004.32
2022-11-23T07:45:01.473Z,1004.37
2022-11-23T07:46:01.291Z,1004.38
2022-11-23T07:47:01.091Z,1004.41
2022-11-23T07:48:01.092Z,1004.45
2022-11-23T07:49:01.143Z,1004.42
2022-11-23T07:50:00.485Z,1004.37
2022-11-23T07:51:00.022Z,1004.39
2022-11-23T07:51:59.768Z,1004.4
2022-11-23T07:53:01.426Z,1004.39
2022-11-23T07:54:02.246Z,1004.38
2022-11-23T07:55:01.306Z,1004.42
2022-11-23T07:56:02.051Z,1004.39
2022-11-23T07:57:01.762Z,1004.4
2022-11-23T07:58:01.782Z,1004.36
2022-11-23T07:59:02.168Z,1004.38
2022-11-23T08:00:04.911Z,1004.36
2022-11-23T08:01:02.457Z,1004.34
2022-11-23T08:02:01.824Z,1004.4
2022-11-23T08:04:01.773Z,1004.37
2022-11-23T08:05:12.728Z,1004.39
2022-11-23T08:06:01.507Z,1004.42
2022-11-23T08:07:01.149Z,1004.39
2022-11-23T08:08:01.125Z,1004.38
2022-11-23T08:09:01.133Z,1004.36
2022-11-23T08:10:10.275Z,1004.39
2022-11-23T08:11:01.302Z,1004.37
2022-11-23T08:12:01.743Z,1004.35
2022-11-23T08:13:01.523Z,1004.34
2022-11-23T08:14:01.554Z,1004.36
2022-11-23T08:15:11.814Z,1004.37
2022-11-23T08:16:02.389Z,1004.35
2022-11-23T08:17:01.083Z,1004.41
2022-11-23T08:18:01.069Z,1004.4
2022-11-23T08:19:01.761Z,1004.38
2022-11-23T08:20:15.889Z,1004.37
2022-11-23T08:21:01.475Z,1004.37
2022-11-23T08:22:01.478Z,1004.39
2022-11-23T08:23:01.163Z,1004.33
2022-11-23T08:24:01.116Z,1004.3
2022-11-23T08:25:01.112Z,1004.33
2022-11-23T08:26:01.131Z,1004.37
2022-11-23T08:27:01.127Z,1004.29
2022-11-23T08:28:01.137Z,1004.32
2022-11-23T08:29:01.162Z,1004.34
2022-11-23T08:30:01.178Z,1004.36
2022-11-23T08:31:01.337Z,1004.31
2022-11-23T08:32:01.971Z,1004.3
2022-11-23T08:33:01.977Z,1004.27
2022-11-23T08:34:03.505Z,1004.35
2022-11-23T08:35:00.688Z,1004.32
2022-11-23T08:36:00.364Z,1004.36
2022-11-23T08:37:00.019Z,1004.37
2022-11-23T08:37:59.707Z,1004.34
2022-11-23T08:39:01.900Z,1004.36
2022-11-23T08:40:01.933Z,1004.36
2022-11-23T08:41:01.153Z,1004.39
2022-11-23T08:42:01.314Z,1004.39
2022-11-23T08:43:01.777Z,1004.39
2022-11-23T08:44:01.956Z,1004.39
2022-11-23T08:45:01.347Z,1004.38
2022-11-23T08:46:05.649Z,1004.43
2022-11-23T08:47:01.532Z,1004.4
2022-11-23T08:48:01.101Z,1004.4
2022-11-23T08:49:01.075Z,1004.4
2022-11-23T08:50:01.044Z,1004.41
2022-11-23T08:51:01.039Z,1004.43
2022-11-23T08:52:01.054Z,1004.44
2022-11-23T08:53:01.040Z,1004.49
2022-11-23T08:54:01.112Z,1004.45
2022-11-23T08:55:00.702Z,1004.51
2022-11-23T08:56:00.380Z,1004.52
2022-11-23T08:56:59.968Z,1004.47
2022-11-23T08:57:59.581Z,1004.49
2022-11-23T08:59:01.150Z,1004.51
2022-11-23T09:00:01.131Z,1004.55
2022-11-23T09:01:01.842Z,1004.55
2022-11-23T09:02:01.101Z,1004.54
2022-11-23T09:03:01.480Z,1004.56
2022-11-23T09:04:01.424Z,1004.54
2022-11-23T09:05:01.061Z,1004.56
2022-11-23T09:06:01.887Z,1004.51
2022-11-23T09:07:01.744Z,1004.57
2022-11-23T09:08:01.100Z,1004.57
2022-11-23T09:09:01.076Z,1004.57
2022-11-23T09:10:01.173Z,1004.55
2022-11-23T09:11:01.089Z,1004.62
2022-11-23T09:12:01.102Z,1004.61
2022-11-23T09:13:01.104Z,1004.59
2022-11-23T09:14:01.120Z,1004.6
2022-11-23T09:15:00.798Z,1004.61
2022-11-23T09:16:00.402Z,1004.62
2022-11-23T09:16:59.995Z,1004.61
2022-11-23T09:17:59.593Z,1004.67
2022-11-23T09:19:01.172Z,1004.65
2022-11-23T09:20:01.789Z,1004.65
2022-11-23T09:21:01.800Z,1004.63
2022-11-23T09:22:01.063Z,1004.61
2022-11-23T09:23:02.004Z,1004.65
2022-11-23T09:24:01.093Z,1004.66
2022-11-23T09:25:01.257Z,1004.68
2022-11-23T09:26:02.126Z,1004.67
2022-11-23T09:27:01.064Z,1004.71
2022-11-23T09:28:01.115Z,1004.69
2022-11-23T09:29:01.079Z,1004.67
2022-11-23T09:30:01.117Z,1004.73
2022-11-23T09:31:01.051Z,1004.69
2022-11-23T09:32:01.062Z,1004.7
2022-11-23T09:33:01.151Z,1004.7
2022-11-23T09:34:01.302Z,1004.68
2022-11-23T09:35:00.837Z,1004.7
2022-11-23T09:36:01.809Z,1004.66
2022-11-23T09:37:01.155Z,1004.66
2022-11-23T09:38:01.876Z,1004.64
2022-11-23T09:39:01.103Z,1004.63
2022-11-23T09:40:01.095Z,1004.62
2022-11-23T09:41:04.782Z,1004.64
2022-11-23T09:42:01.113Z,1004.62
2022-11-23T09:43:01.310Z,1004.6
2022-11-23T09:44:01.332Z,1004.64
2022-11-23T09:45:01.541Z,1004.61
2022-11-23T09:46:07.638Z,1004.65
2022-11-23T09:47:01.116Z,1004.6
2022-11-23T09:48:04.174Z,1004.62
2022-11-23T09:49:01.376Z,1004.61
2022-11-23T09:50:01.943Z,1004.61
2022-11-23T09:51:10.596Z,1004.6
2022-11-23T09:52:01.430Z,1004.57
2022-11-23T09:53:04.119Z,1004.59
2022-11-23T09:54:02.212Z,1004.57
2022-11-23T09:55:12.657Z,1004.55
2022-11-23T09:56:13.013Z,1004.57
2022-11-23T09:57:02.103Z,1004.57
2022-11-23T09:58:01.649Z,1004.54
2022-11-23T09:59:02.637Z,1004.52
2022-11-23T10:00:01.311Z,1004.55
2022-11-23T10:01:16.068Z,1004.57
2022-11-23T10:02:01.265Z,1004.52
2022-11-23T10:03:01.069Z,1004.56
2022-11-23T10:04:00.739Z,1004.54
2022-11-23T10:05:00.377Z,1004.5
2022-11-23T10:06:00.112Z,1004.56
2022-11-23T10:06:59.748Z,1004.55
2022-11-23T10:08:02.427Z,1004.49
2022-11-23T10:09:01.421Z,1004.48
2022-11-23T10:10:01.182Z,1004.52
2022-11-23T10:11:01.124Z,1004.47
2022-11-23T10:12:01.465Z,1004.43
2022-11-23T10:13:01.184Z,1004.43
2022-11-23T10:14:01.906Z,1004.42
2022-11-23T10:15:00.898Z,1004.43
2022-11-23T10:16:01.053Z,1004.43
2022-11-23T10:17:01.099Z,1004.42
2022-11-23T10:18:01.061Z,1004.4
2022-11-23T10:19:01.118Z,1004.38
2022-11-23T10:20:01.069Z,1004.37
2022-11-23T10:21:01.136Z,1004.37
2022-11-23T10:22:01.128Z,1004.43
2022-11-23T10:23:01.053Z,1004.39
2022-11-23T10:24:01.040Z,1004.39
2022-11-23T10:25:01.171Z,1004.34
2022-11-23T10:26:01.071Z,1004.34
2022-11-23T10:27:01.057Z,1004.35
2022-11-23T10:28:01.067Z,1004.34
2022-11-23T10:29:01.424Z,1004.36
2022-11-23T10:30:02.081Z,1004.35
2022-11-23T10:31:01.093Z,1004.33
2022-11-23T10:32:01.111Z,1004.28
2022-11-23T10:33:01.155Z,1004.32
2022-11-23T10:34:01.121Z,1004.34
2022-11-23T10:35:00.756Z,1004.3
2022-11-23T10:36:00.532Z,1004.3
2022-11-23T10:37:00.230Z,1004.31
2022-11-23T10:38:00.546Z,1004.31
2022-11-23T10:39:00.095Z,1004.3
2022-11-23T10:39:59.829Z,1004.29
2022-11-23T10:40:59.551Z,1004.32
2022-11-23T10:42:01.191Z,1004.28
2022-11-23T10:43:01.870Z,1004.35
2022-11-23T10:44:01.455Z,1004.33
2022-11-23T10:45:01.201Z,1004.33
2022-11-23T10:46:01.073Z,1004.3
2022-11-23T10:47:01.097Z,1004.31
2022-11-23T10:48:01.049Z,1004.28
2022-11-23T10:49:01.038Z,1004.26
2022-11-23T10:50:01.131Z,1004.29
2022-11-23T10:51:01.108Z,1004.29
2022-11-23T10:52:01.508Z,1004.28
2022-11-23T10:53:02.040Z,1004.27
2022-11-23T10:54:05.443Z,1004.29
2022-11-23T10:55:00.758Z,1004.29
2022-11-23T10:56:00.342Z,1004.32
2022-11-23T10:56:59.949Z,1004.29
2022-11-23T10:57:59.625Z,1004.24
2022-11-23T10:59:01.262Z,1004.26
2022-11-23T11:00:01.920Z,1004.24
2022-11-23T11:01:01.990Z,1004.24
2022-11-23T11:02:01.452Z,1004.28
2022-11-23T11:03:02.095Z,1004.24
2022-11-23T11:04:01.104Z,1004.23
2022-11-23T11:05:01.118Z,1004.23
2022-11-23T11:06:09.888Z,1004.26
2022-11-23T11:07:01.452Z,1004.25
2022-11-23T11:08:04.299Z,1004.25
2022-11-23T11:09:03.391Z,1004.26
2022-11-23T11:10:02.394Z,1004.25
2022-11-23T11:11:01.091Z,1004.23
2022-11-23T11:12:02.034Z,1004.22
2022-11-23T11:13:01.208Z,1004.21
2022-11-23T11:14:01.990Z,1004.24
2022-11-23T11:15:10.344Z,1004.19
2022-11-23T11:16:01.046Z,1004.22
2022-11-23T11:17:01.041Z,1004.2
2022-11-23T11:18:01.315Z,1004.2
2022-11-23T11:19:01.456Z,1004.13
2022-11-23T11:20:02.126Z,1004.19
2022-11-23T11:21:01.445Z,1004.14
2022-11-23T11:22:03.240Z,1004.19
2022-11-23T11:23:03.854Z,1004.19
2022-11-23T11:24:01.927Z,1004.14
2022-11-23T11:25:01.531Z,1004.1
2022-11-23T11:26:01.407Z,1004.08
2022-11-23T11:27:04.903Z,1004.09
2022-11-23T11:28:02.097Z,1004.07
2022-11-23T11:29:01.527Z,1004.05
2022-11-23T11:30:04.854Z,1004.08
2022-11-23T11:31:01.165Z,1004.06
2022-11-23T11:32:08.785Z,1004.06
2022-11-23T11:33:01.791Z,1004.04
2022-11-23T11:34:01.997Z,1004.05
2022-11-23T11:35:01.506Z,1004.06
2022-11-23T11:36:01.087Z,1004.04
2022-11-23T11:37:10.724Z,1004.06
2022-11-23T11:38:01.404Z,1004.02
2022-11-23T11:39:17.907Z,1004.03
2022-11-23T11:40:02.177Z,1004.05
2022-11-23T11:41:01.113Z,1004.05
2022-11-23T11:42:13.988Z,1004.07
2022-11-23T11:43:01.142Z,1004.06
2022-11-23T11:44:01.152Z,1004.04
2022-11-23T11:45:01.217Z,1004.06
2022-11-23T11:46:29.793Z,1004.06
2022-11-23T11:47:16.461Z,1004.03
2022-11-23T11:48:02.186Z,1004.09
2022-11-23T11:49:01.071Z,1004.03
2022-11-23T11:50:01.055Z,1004.05
2022-11-23T11:51:01.108Z,1004.07
2022-11-23T11:52:01.098Z,1004.06
2022-11-23T11:53:01.096Z,1004.07
2022-11-23T11:54:01.862Z,1004.1
2022-11-23T11:55:00.756Z,1004.05
2022-11-23T11:56:01.184Z,1004.01
2022-11-23T11:57:01.231Z,1004.08
2022-11-23T11:58:01.947Z,1004.08
2022-11-23T11:59:02.030Z,1004.04
2022-11-23T12:00:01.082Z,1004.09
2022-11-23T12:01:01.783Z,1004.1
2022-11-23T12:02:01.936Z,1004.11
2022-11-23T12:03:02.650Z,1004.09
2022-11-23T12:04:01.062Z,1004.07
2022-11-23T12:05:01.058Z,1004.11
2022-11-23T12:06:01.074Z,1004.07
2022-11-23T12:07:01.123Z,1004.07
2022-11-23T12:08:01.043Z,1004.07
2022-11-23T12:09:02.203Z,1004.07
2022-11-23T12:10:01.281Z,1004.12